Time;durP1;ratioP1;P1;durP2;ratioP2;P2;SDS_P1;SDS_P2;PMS_P1;PMS_P2;Temp;Humidity;BMP_temperature;BMP_pressure;BME280_temperature;BME280_humidity;BME280_pressure;Samples;Min_cycle;Max_cycle;Signal;HPM_P1;HPM_P2
2022/07/03 00:00:05;;;;;;;5.15;2.55;;;18.10;99.90;;;;;;5116844;27;20328;-76
2022/07/03 00:02:32;;;;;;;6.13;2.92;;;18.10;99.90;;;;;;5134547;27;20043;-74
2022/07/03 00:04:59;;;;;;;5.20;2.70;;;18.00;99.90;;;;;;5134542;27;20115;-75
2022/07/03 00:07:26;;;;;;;6.10;2.63;;;18.00;99.90;;;;;;5134899;27;20047;-76
2022/07/03 00:09:52;;;;;;;5.78;2.78;;;17.90;99.90;;;;;;5116509;27;20050;-76
2022/07/03 00:12:19;;;;;;;4.05;2.72;;;17.90;99.90;;;;;;5134244;27;20051;-76
2022/07/03 00:14:50;;;;;;;6.20;3.60;;;17.90;99.90;;;;;;5116750;27;20059;-76
2022/07/03 00:17:17;;;;;;;5.93;3.22;;;17.80;99.90;;;;;;5134637;27;20070;-77
2022/07/03 00:19:43;;;;;;;4.38;2.92;;;17.70;99.90;;;;;;5134047;27;20058;-76
2022/07/03 00:22:13;;;;;;;6.25;2.50;;;17.60;99.90;;;;;;5134564;27;20448;-77
2022/07/03 00:24:44;;;;;;;3.83;2.72;;;17.60;99.90;;;;;;5134223;27;20051;-77
2022/07/03 00:27:12;;;;;;;5.85;3.22;;;17.50;99.90;;;;;;5134125;27;20398;-75
2022/07/03 00:29:42;;;;;;;5.97;3.15;;;17.50;99.90;;;;;;5115178;27;20139;-77
2022/07/03 00:32:12;;;;;;;6.65;2.92;;;17.40;99.90;;;;;;5114847;27;20451;-76
2022/07/03 00:34:40;;;;;;;5.38;3.08;;;17.30;99.90;;;;;;5116151;27;20047;-76
2022/07/03 00:37:09;;;;;;;4.97;2.95;;;17.30;99.90;;;;;;5133925;27;20126;-74
2022/07/03 00:39:38;;;;;;;5.30;2.92;;;17.30;99.90;;;;;;5115369;27;20134;-76
2022/07/03 00:42:06;;;;;;;6.50;3.20;;;17.20;99.90;;;;;;5134155;27;20051;-75
2022/07/03 00:44:36;;;;;;;6.10;2.85;;;17.20;99.90;;;;;;5134232;27;20448;-75
2022/07/03 00:47:04;;;;;;;5.75;3.33;;;17.10;99.90;;;;;;5133468;27;20054;-75
2022/07/03 00:49:36;;;;;;;5.93;3.15;;;17.00;99.90;;;;;;5115571;27;20550;-75
2022/07/03 00:52:06;;;;;;;4.32;2.88;;;17.00;99.90;;;;;;5133956;27;20069;-75
2022/07/03 00:54:35;;;;;;;5.07;3.53;;;17.00;99.90;;;;;;5115166;27;20053;-75
2022/07/03 00:57:04;;;;;;;7.22;3.70;;;16.90;99.90;;;;;;5115927;27;20110;-75
2022/07/03 00:59:31;;;;;;;5.25;3.30;;;16.90;99.90;;;;;;5133811;27;20043;-74
2022/07/03 01:02:04;;;;;;;3.92;2.95;;;16.80;99.90;;;;;;5133529;27;20054;-75
2022/07/03 01:04:41;;;;;;;7.13;3.53;;;16.70;99.90;;;;;;5133903;27;20051;-74
2022/07/03 01:07:14;;;;;;;3.67;2.92;;;16.70;99.90;;;;;;5120380;27;20050;-74
2022/07/03 01:09:51;;;;;;;5.43;3.42;;;16.70;99.90;;;;;;5154245;27;20482;-74
2022/07/03 01:12:24;;;;;;;6.78;3.60;;;16.70;99.90;;;;;;5135992;27;20050;-74
2022/07/03 01:15:09;;;;;;;6.10;3.30;;;16.60;99.90;;;;;;5154253;27;20054;-75
2022/07/03 01:17:40;;;;;;;6.65;3.83;;;16.60;99.90;;;;;;5154687;27;20479;-76
2022/07/03 01:20:09;;;;;;;5.55;3.47;;;16.50;99.90;;;;;;5154353;27;20054;-75
2022/07/03 01:22:37;;;;;;;6.75;3.55;;;16.60;99.90;;;;;;5142201;27;20512;-76
2022/07/03 01:25:17;;;;;;;7.10;3.80;;;16.50;99.90;;;;;;5115464;28;20054;-75
2022/07/03 01:28:03;;;;;;;7.43;3.30;;;16.50;99.90;;;;;;5133334;28;20047;-75
2022/07/03 01:30:32;;;;;;;4.25;3.05;;;16.50;99.90;;;;;;5133278;28;20051;-77
2022/07/03 01:33:03;;;;;;;3.83;2.90;;;16.40;99.90;;;;;;5115680;28;20059;-78
2022/07/03 01:35:34;;;;;;;8.50;3.83;;;16.40;99.90;;;;;;5115437;27;20107;-76
2022/07/03 01:38:08;;;;;;;6.32;4.32;;;16.40;99.90;;;;;;5146022;27;20122;-76
2022/07/03 01:40:37;;;;;;;6.00;3.40;;;16.40;99.90;;;;;;5135515;27;20055;-76
2022/07/03 01:43:07;;;;;;;5.88;3.75;;;16.30;99.90;;;;;;5135076;27;20099;-75
2022/07/03 01:45:39;;;;;;;6.85;3.75;;;16.30;99.90;;;;;;5135789;27;20562;-77
2022/07/03 01:48:08;;;;;;;6.40;3.47;;;16.20;99.90;;;;;;5135568;27;20039;-76
2022/07/03 01:50:37;;;;;;;4.65;3.83;;;16.20;99.90;;;;;;5135358;27;20227;-77
2022/07/03 01:53:06;;;;;;;7.35;3.60;;;16.20;99.90;;;;;;5154015;27;20047;-75
2022/07/03 01:55:34;;;;;;;5.38;3.90;;;16.10;99.90;;;;;;5135585;27;20126;-75
2022/07/03 01:58:01;;;;;;;5.50;3.90;;;16.10;99.90;;;;;;5135167;27;20047;-76
2022/07/03 02:00:39;;;;;;;4.90;3.67;;;16.10;99.90;;;;;;5138399;27;20490;-74
2022/07/03 02:03:07;;;;;;;5.97;4.25;;;16.00;99.90;;;;;;5139466;27;20058;-74
2022/07/03 02:05:38;;;;;;;8.93;4.10;;;16.00;99.90;;;;;;5157307;27;20490;-75
2022/07/03 02:08:12;;;;;;;6.55;4.60;;;15.90;99.90;;;;;;5135251;27;20116;-75
2022/07/03 02:10:45;;;;;;;6.18;4.25;;;15.90;99.90;;;;;;5118238;27;20055;-76
2022/07/03 02:13:18;;;;;;;6.18;4.50;;;15.80;99.90;;;;;;5118953;27;20133;-76
2022/07/03 02:15:50;;;;;;;7.50;4.15;;;15.80;99.90;;;;;;5136687;27;20051;-75
2022/07/03 02:18:28;;;;;;;8.80;4.70;;;15.80;99.90;;;;;;5136946;27;20083;-75
2022/07/03 02:21:05;;;;;;;7.03;4.43;;;15.70;99.90;;;;;;5136939;27;20091;-74
2022/07/03 02:23:35;;;;;;;6.38;4.93;;;15.70;99.90;;;;;;5136780;27;20055;-75
2022/07/03 02:26:04;;;;;;;;;;;15.60;99.90;;;;;;5118740;27;20055;-75
2022/07/03 02:28:38;;;;;;;6.40;4.93;;;15.50;99.90;;;;;;5117832;27;19951;-75
2022/07/03 02:31:09;;;;;;;8.82;5.28;;;15.50;99.90;;;;;;5135203;27;20043;-75
2022/07/03 02:33:39;;;;;;;7.78;4.22;;;15.40;99.90;;;;;;5117941;27;20051;-75
2022/07/03 02:36:10;;;;;;;6.80;4.53;;;15.40;99.90;;;;;;5136866;27;20487;-75
2022/07/03 02:38:37;;;;;;;6.30;4.57;;;15.40;99.90;;;;;;5136052;27;20043;-75
2022/07/03 02:41:10;;;;;;;8.63;5.00;;;15.40;99.90;;;;;;5135760;27;20047;-75
2022/07/03 02:43:43;;;;;;;6.53;4.78;;;15.30;99.90;;;;;;5136060;27;20074;-75
2022/07/03 02:49:12;;;;;;;8.65;4.82;;;15.20;99.90;;;;;;5118083;27;20203;-75
2022/07/03 02:51:45;;;;;;;5.57;4.32;;;15.30;99.90;;;;;;5117911;27;20051;-74
2022/07/03 02:54:15;;;;;;;5.32;4.40;;;15.20;99.90;;;;;;5117725;27;20058;-75
2022/07/03 02:56:55;;;;;;;7.57;5.10;;;15.20;99.90;;;;;;5118567;27;20047;-75
2022/07/03 02:59:33;;;;;;;6.70;4.55;;;15.20;99.90;;;;;;5136008;27;20043;-76
2022/07/03 03:02:15;;;;;;;7.18;5.13;;;15.10;99.90;;;;;;5135961;27;20455;-74
2022/07/03 03:04:48;;;;;;;6.22;4.20;;;15.10;99.90;;;;;;5136412;27;20553;-75
2022/07/03 03:07:16;;;;;;;7.50;4.47;;;15.10;99.90;;;;;;5142256;27;20050;-75
2022/07/03 03:09:45;;;;;;;9.50;5.05;;;15.00;99.90;;;;;;5156472;27;20092;-75
2022/07/03 03:12:13;;;;;;;5.97;4.78;;;15.00;99.90;;;;;;5137293;27;20439;-75
2022/07/03 03:14:42;;;;;;;5.15;4.03;;;15.00;99.90;;;;;;5137658;27;20106;-76
2022/07/03 03:17:14;;;;;;;6.93;4.20;;;15.00;99.90;;;;;;5138336;27;20099;-76
2022/07/03 03:19:46;;;;;;;5.90;4.57;;;15.00;99.90;;;;;;5137556;27;20043;-76
2022/07/03 03:22:29;;;;;;;5.78;5.03;;;15.00;99.90;;;;;;5154486;27;20047;-76
2022/07/03 03:24:56;;;;;;;5.93;4.72;;;14.90;99.90;;;;;;5138091;27;20054;-76
2022/07/03 03:27:23;;;;;;;7.13;5.22;;;14.90;99.90;;;;;;5156450;27;20452;-75
2022/07/03 03:29:51;;;;;;;6.75;5.10;;;14.90;99.90;;;;;;5139610;27;20054;-75
2022/07/03 03:32:21;;;;;;;7.15;4.90;;;14.90;99.90;;;;;;5159327;27;20081;-74
2022/07/03 03:34:48;;;;;;;6.18;5.47;;;14.90;99.90;;;;;;5158047;27;20057;-76
2022/07/03 03:37:15;;;;;;;8.40;4.90;;;14.90;99.90;;;;;;5127757;27;20432;-75
2022/07/03 03:39:43;;;;;;;7.40;4.97;;;15.00;99.90;;;;;;5116916;27;20043;-75
2022/07/03 03:42:10;;;;;;;7.07;5.35;;;15.00;99.90;;;;;;5116362;27;20051;-75
2022/07/03 03:44:37;;;;;;;8.98;5.25;;;15.00;99.90;;;;;;5135426;27;20452;-75
2022/07/03 03:47:04;;;;;;;7.28;5.28;;;15.10;99.90;;;;;;5143138;27;20051;-75
2022/07/03 03:49:32;;;;;;;8.60;5.75;;;15.10;99.90;;;;;;5155372;27;20435;-75
2022/07/03 03:51:59;;;;;;;5.97;4.85;;;15.10;99.90;;;;;;5156316;27;20050;-75
2022/07/03 03:54:26;;;;;;;9.48;5.13;;;15.20;99.90;;;;;;5155909;27;20087;-75
2022/07/03 03:56:53;;;;;;;8.25;5.10;;;15.20;99.90;;;;;;5155621;27;20050;-76
2022/07/03 03:59:20;;;;;;;7.28;4.22;;;15.20;99.90;;;;;;5137655;27;20039;-77
2022/07/03 04:01:47;;;;;;;6.07;4.82;;;15.30;99.90;;;;;;5128810;27;20047;-76
2022/07/03 04:04:17;;;;;;;6.75;5.68;;;15.30;99.90;;;;;;5134964;27;20405;-76
2022/07/03 04:06:45;;;;;;;8.73;5.67;;;15.30;99.90;;;;;;5134960;27;20402;-76
2022/07/03 04:09:12;;;;;;;6.90;5.38;;;15.20;99.90;;;;;;5116313;27;20039;-77
2022/07/03 04:11:39;;;;;;;13.23;5.93;;;15.20;99.90;;;;;;5134312;27;20055;-75
2022/07/03 04:14:06;;;;;;;9.38;5.18;;;15.20;99.90;;;;;;5116780;27;20051;-75
2022/07/03 04:16:35;;;;;;;6.85;5.10;;;15.20;99.90;;;;;;5134382;27;20080;-76
2022/07/03 04:19:02;;;;;;;6.40;5.63;;;15.20;99.90;;;;;;5134347;27;20047;-76
2022/07/03 04:21:29;;;;;;;7.63;6.03;;;15.20;99.90;;;;;;5120372;27;20091;-76
2022/07/03 04:23:57;;;;;;;8.75;5.65;;;15.30;99.90;;;;;;5136966;27;20402;-76
2022/07/03 04:26:24;;;;;;;6.13;5.43;;;15.30;99.90;;;;;;5135380;27;20129;-76
2022/07/03 04:28:51;;;;;;;8.98;6.13;;;15.40;99.90;;;;;;5136163;27;20107;-76
2022/07/03 04:31:18;;;;;;;7.13;5.65;;;15.40;99.90;;;;;;5136155;27;20058;-75
2022/07/03 04:33:45;;;;;;;7.53;5.70;;;15.50;99.90;;;;;;5136800;27;20091;-75
2022/07/03 04:36:12;;;;;;;7.65;6.10;;;15.60;99.90;;;;;;5149758;27;20419;-76
2022/07/03 04:38:39;;;;;;;7.47;4.97;;;15.70;99.90;;;;;;5133794;27;20429;-75
2022/07/03 04:41:07;;;;;;;6.80;5.47;;;15.80;99.90;;;;;;5134140;27;20047;-75
2022/07/03 04:43:34;;;;;;;6.93;5.40;;;15.90;99.90;;;;;;5133855;27;20503;-75
2022/07/03 04:46:01;;;;;;;8.18;5.63;;;15.90;99.90;;;;;;5116501;27;20444;-76
2022/07/03 04:48:29;;;;;;;6.20;5.57;;;15.90;99.90;;;;;;5155116;27;20043;-75
2022/07/03 04:50:56;;;;;;;5.63;5.03;;;16.00;99.90;;;;;;5136277;27;20081;-75
2022/07/03 04:53:23;;;;;;;6.25;4.95;;;16.10;99.90;;;;;;5154451;27;20499;-75
2022/07/03 04:55:50;;;;;;;7.63;5.80;;;16.10;99.90;;;;;;5136573;27;20452;-75
2022/07/03 04:58:18;;;;;;;7.53;5.22;;;16.20;99.90;;;;;;5154676;27;20447;-74
2022/07/03 05:00:45;;;;;;;7.88;5.25;;;16.30;99.90;;;;;;5134687;27;20043;-75
2022/07/03 05:03:12;;;;;;;6.43;5.10;;;16.30;99.90;;;;;;5115695;27;20050;-75
2022/07/03 05:05:39;;;;;;;10.32;5.63;;;16.50;99.90;;;;;;5133477;27;20100;-75
2022/07/03 05:08:06;;;;;;;5.78;4.75;;;16.60;99.90;;;;;;5115020;27;20131;-74
2022/07/03 05:10:33;;;;;;;9.73;5.13;;;16.80;99.90;;;;;;5115224;27;20114;-76
2022/07/03 05:13:00;;;;;;;5.90;5.30;;;17.00;99.90;;;;;;5115523;28;20547;-76
2022/07/03 05:15:28;;;;;;;7.45;4.85;;;17.20;99.90;;;;;;5133228;28;20445;-76
2022/07/03 05:17:55;;;;;;;8.30;5.35;;;17.30;99.90;;;;;;5115395;28;20147;-76
2022/07/03 05:20:25;;;;;;;10.50;4.95;;;17.50;99.90;;;;;;5115521;28;20055;-77
2022/07/03 05:22:52;;;;;;;5.70;4.70;;;17.70;99.90;;;;;;5115365;28;20058;-78
2022/07/03 05:25:19;;;;;;;7.75;4.65;;;17.90;99.90;;;;;;5115262;28;20050;-78
2022/07/03 05:27:47;;;;;;;6.63;3.80;;;18.10;99.90;;;;;;5133419;28;20051;-78
2022/07/03 05:30:14;;;;;;;8.25;3.78;;;18.30;99.90;;;;;;5135631;27;20043;-79
2022/07/03 05:32:43;;;;;;;5.10;4.03;;;18.60;99.90;;;;;;5153899;27;20050;-78
2022/07/03 05:35:10;;;;;;;5.40;3.22;;;18.90;99.90;;;;;;5138669;27;20054;-78
2022/07/03 05:37:37;;;;;;;10.30;3.38;;;19.20;99.90;;;;;;5158253;27;20046;-80
2022/07/03 05:40:05;;;;;;;6.15;2.90;;;19.50;99.90;;;;;;5140329;27;20042;-79
2022/07/03 05:42:32;;;;;;;5.32;3.28;;;19.70;99.90;;;;;;5158471;27;20066;-78
2022/07/03 05:44:59;;;;;;;3.97;3.08;;;19.90;99.90;;;;;;5142923;27;20058;-77
2022/07/03 05:47:26;;;;;;;7.30;3.40;;;20.10;99.90;;;;;;5132624;27;20055;-76
2022/07/03 05:49:55;;;;;;;3.85;3.28;;;20.10;99.90;;;;;;5145278;27;20047;-75
2022/07/03 05:52:22;;;;;;;5.28;3.05;;;20.10;99.90;;;;;;5123599;27;20449;-76
2022/07/03 05:54:49;;;;;;;5.97;3.38;;;20.10;99.90;;;;;;5142930;27;20047;-77
2022/07/03 05:57:16;;;;;;;4.25;3.00;;;20.20;99.90;;;;;;5118691;27;20051;-77
2022/07/03 05:59:43;;;;;;;3.70;2.90;;;20.20;99.90;;;;;;5119256;27;20104;-77
2022/07/03 06:02:10;;;;;;;5.63;3.00;;;20.20;99.90;;;;;;5131211;27;20517;-78
2022/07/03 06:04:37;;;;;;;3.70;2.78;;;20.30;99.90;;;;;;5118530;27;20051;-76
2022/07/03 06:07:05;;;;;;;3.78;2.10;;;20.40;99.90;;;;;;5129568;27;20047;-76
2022/07/03 06:09:32;;;;;;;4.55;2.13;;;20.60;99.90;;;;;;5139448;27;20054;-76
2022/07/03 06:11:59;;;;;;;2.60;1.83;;;20.70;99.90;;;;;;5157454;27;20050;-75
2022/07/03 06:14:26;;;;;;;6.43;1.70;;;20.70;99.90;;;;;;5131234;27;20054;-75
2022/07/03 06:16:53;;;;;;;5.13;1.90;;;20.70;99.90;;;;;;5137883;27;20068;-76
2022/07/03 06:19:20;;;;;;;4.75;2.10;;;20.70;99.90;;;;;;5151781;27;20039;-74
2022/07/03 06:21:46;;;;;;;5.00;1.75;;;20.70;99.90;;;;;;5152977;27;20046;-72
2022/07/03 06:24:15;;;;;;;4.80;1.85;;;20.70;99.90;;;;;;5150063;27;20038;-75
2022/07/03 06:26:42;;;;;;;4.82;1.92;;;20.70;99.90;;;;;;5131935;27;20039;-73
2022/07/03 06:29:09;;;;;;;5.22;2.10;;;20.70;99.90;;;;;;5152997;27;20050;-75
2022/07/03 06:31:36;;;;;;;3.15;1.73;;;20.70;99.90;;;;;;5131546;27;20556;-73
2022/07/03 06:34:02;;;;;;;4.93;2.10;;;20.80;99.90;;;;;;5152802;27;20057;-74
2022/07/03 06:36:29;;;;;;;3.85;1.70;;;21.30;99.90;;;;;;5125280;27;20118;-74
2022/07/03 06:38:56;;;;;;;3.08;1.88;;;21.80;99.90;;;;;;5150385;27;20042;-74
2022/07/03 06:41:24;;;;;;;2.45;1.60;;;22.40;99.90;;;;;;5131047;27;20043;-75
2022/07/03 06:43:51;;;;;;;3.15;1.55;;;22.70;99.90;;;;;;5133821;27;20054;-74
2022/07/03 06:46:18;;;;;;;3.63;1.80;;;22.80;99.90;;;;;;5147334;27;20482;-73
2022/07/03 06:48:45;;;;;;;3.67;1.50;;;22.70;99.90;;;;;;5147561;27;20062;-73
2022/07/03 06:51:12;;;;;;;2.85;1.25;;;22.50;99.90;;;;;;5136235;27;20058;-75
2022/07/03 06:53:39;;;;;;;4.35;1.85;;;22.40;99.90;;;;;;5149827;27;20046;-76
2022/07/03 06:56:06;;;;;;;4.82;1.90;;;22.20;99.90;;;;;;5147327;27;20068;-76
2022/07/03 06:58:34;;;;;;;3.65;1.73;;;22.00;99.90;;;;;;5129497;27;20057;-76
2022/07/03 07:01:01;;;;;;;3.38;1.40;;;21.80;99.90;;;;;;5145525;27;20422;-76
2022/07/03 07:03:28;;;;;;;3.75;1.60;;;21.80;99.90;;;;;;5130271;27;20054;-74
2022/07/03 07:05:55;;;;;;;3.00;1.60;;;21.80;99.90;;;;;;5132142;27;20059;-75
2022/07/03 07:08:22;;;;;;;5.55;1.80;;;21.80;99.90;;;;;;5147049;27;20525;-74
2022/07/03 07:10:48;;;;;;;4.63;2.17;;;22.20;99.90;;;;;;5131497;27;20062;-73
2022/07/03 07:13:15;;;;;;;4.38;1.85;;;22.70;99.90;;;;;;5147368;27;20375;-75
2022/07/03 07:15:44;;;;;;;4.10;1.60;;;23.40;99.90;;;;;;5149666;27;20047;-74
2022/07/03 07:18:10;;;;;;;2.92;1.60;;;24.40;99.90;;;;;;5129201;27;20047;-74
2022/07/03 07:20:37;;;;;;;2.90;1.90;;;24.80;99.90;;;;;;5132958;27;20055;-76
2022/07/03 07:23:04;;;;;;;3.40;1.75;;;24.60;99.60;;;;;;5152913;27;20050;-76
2022/07/03 07:25:31;;;;;;;5.60;1.90;;;24.10;99.40;;;;;;5126660;27;20092;-74
2022/07/03 07:27:58;;;;;;;3.42;1.58;;;23.70;99.50;;;;;;5147920;27;20095;-75
2022/07/03 07:30:25;;;;;;;5.13;1.60;;;23.20;99.70;;;;;;5148166;27;20054;-75
2022/07/03 07:32:53;;;;;;;3.92;2.00;;;22.70;99.90;;;;;;5130324;27;20043;-74
2022/07/03 07:35:20;;;;;;;4.75;2.13;;;22.70;99.90;;;;;;5147551;27;20047;-75
2022/07/03 07:37:48;;;;;;;4.10;1.90;;;22.70;99.90;;;;;;5128426;27;20046;-77
2022/07/03 07:40:15;;;;;;;4.28;2.00;;;22.80;99.90;;;;;;5148448;27;20043;-76
2022/07/03 07:42:42;;;;;;;3.22;1.55;;;23.00;99.90;;;;;;5127860;27;20112;-77
2022/07/03 07:45:11;;;;;;;5.82;1.70;;;23.00;99.90;;;;;;5131206;27;20458;-77
2022/07/03 07:47:38;;;;;;;7.32;1.98;;;23.40;99.90;;;;;;5128681;27;20444;-76
2022/07/03 07:50:08;;;;;;;2.58;1.25;;;24.20;99.90;;;;;;5145566;27;20090;-74
2022/07/03 07:52:35;;;;;;;3.60;1.25;;;25.10;98.90;;;;;;5146200;27;20051;-74
2022/07/03 07:55:02;;;;;;;3.05;0.95;;;25.30;97.20;;;;;;5128509;27;20115;-74
2022/07/03 07:57:35;;;;;;;10.65;1.70;;;25.40;96.10;;;;;;5145790;27;20039;-75
2022/07/03 08:00:06;;;;;;;1.90;1.10;;;25.50;95.40;;;;;;5134768;27;20443;-74
2022/07/03 08:08:00;;;;;;;2.33;1.00;;;26.60;93.60;;;;;;5148160;27;20051;-74
2022/07/03 08:10:27;;;;;;;2.83;1.20;;;27.30;92.50;;;;;;5153967;27;20091;-76
2022/07/03 08:12:54;;;;;;;3.97;1.40;;;27.70;92.00;;;;;;5153161;27;20536;-75
2022/07/03 08:15:21;;;;;;;1.70;0.95;;;27.80;91.40;;;;;;5131225;27;20047;-76
2022/07/03 08:17:48;;;;;;;3.35;0.88;;;27.90;91.40;;;;;;5128649;27;20487;-76
2022/07/03 08:20:15;;;;;;;6.60;1.15;;;28.20;90.10;;;;;;5125667;27;20046;-76
2022/07/03 08:22:43;;;;;;;2.67;0.90;;;28.00;88.40;;;;;;5122230;27;20053;-76
2022/07/03 08:25:10;;;;;;;2.65;0.90;;;28.30;87.20;;;;;;5129749;27;20494;-76
2022/07/03 08:27:37;;;;;;;2.85;0.95;;;28.50;86.20;;;;;;5149112;27;20422;-74
2022/07/03 08:30:04;;;;;;;2.08;0.80;;;28.50;84.80;;;;;;5151749;27;20463;-76
2022/07/03 08:32:31;;;;;;;2.85;0.80;;;29.00;84.70;;;;;;5129517;27;20050;-76
2022/07/03 08:34:58;;;;;;;2.58;0.65;;;29.20;83.70;;;;;;5128161;27;20046;-75
2022/07/03 08:37:27;;;;;;;1.85;0.63;;;29.50;81.60;;;;;;5127843;27;20102;-76
2022/07/03 08:39:55;;;;;;;2.20;0.90;;;29.70;78.50;;;;;;5130348;27;20523;-77
2022/07/03 08:42:24;;;;;;;4.20;1.00;;;29.70;78.00;;;;;;5151769;27;20043;-75
2022/07/03 08:44:52;;;;;;;3.00;0.60;;;29.90;75.90;;;;;;5125552;27;20046;-76
2022/07/03 08:47:19;;;;;;;1.85;0.70;;;29.70;73.50;;;;;;5142498;27;20406;-77
2022/07/03 08:49:49;;;;;;;1.23;0.60;;;29.40;72.70;;;;;;5142875;27;20038;-77
2022/07/03 08:52:17;;;;;;;1.25;0.45;;;29.50;72.20;;;;;;5130824;27;20047;-77
2022/07/03 08:54:44;;;;;;;2.35;0.60;;;29.80;71.90;;;;;;5129375;27;20092;-77
2022/07/03 08:57:12;;;;;;;1.63;0.60;;;30.10;71.60;;;;;;5125514;27;20534;-77
2022/07/03 08:59:40;;;;;;;1.58;0.60;;;30.00;70.50;;;;;;5147303;27;20042;-77
2022/07/03 09:02:07;;;;;;;1.42;0.60;;;29.80;70.30;;;;;;5127159;27;20051;-74
2022/07/03 09:04:35;;;;;;;3.72;0.70;;;29.80;70.00;;;;;;5131897;27;20046;-77
2022/07/03 09:07:02;;;;;;;2.88;0.70;;;30.00;69.70;;;;;;5127229;27;20051;-78
2022/07/03 09:09:29;;;;;;;2.67;0.60;;;30.40;70.20;;;;;;5144386;27;20050;-77
2022/07/03 09:11:56;;;;;;;2.75;0.85;;;30.60;69.40;;;;;;5128707;27;20051;-77
2022/07/03 09:14:24;;;;;;;2.42;0.50;;;30.70;68.80;;;;;;5126806;27;20043;-76
2022/07/03 09:16:51;;;;;;;2.15;0.57;;;31.00;68.50;;;;;;5129538;27;20059;-76
2022/07/03 09:19:40;;;;;;;2.03;0.60;;;30.90;68.20;;;;;;5145982;27;20050;-76
2022/07/03 09:22:19;;;;;;;1.15;0.47;;;31.10;65.70;;;;;;5131397;27;20057;-77
2022/07/03 09:24:46;;;;;;;1.23;0.60;;;31.40;65.20;;;;;;5153688;27;20057;-76
2022/07/03 09:27:18;;;;;;;2.63;0.70;;;30.80;67.20;;;;;;5154410;27;20058;-76
2022/07/03 09:30:00;;;;;;;2.53;0.55;;;30.70;65.80;;;;;;5135967;27;20046;-76
2022/07/03 09:32:27;;;;;;;1.85;0.68;;;30.90;65.00;;;;;;5154710;27;20051;-77
2022/07/03 09:35:25;;;;;;;1.63;0.60;;;30.60;65.60;;;;;;5135794;27;20081;-77
2022/07/03 09:37:54;;;;;;;2.42;0.47;;;30.30;65.50;;;;;;5070717;28;20412;-77
2022/07/03 09:40:22;;;;;;;2.72;0.65;;;30.50;66.50;;;;;;5136593;27;20073;-77
2022/07/03 09:43:02;;;;;;;1.05;0.40;;;30.40;66.70;;;;;;5154276;27;20059;-76
2022/07/03 09:45:50;;;;;;;3.05;0.60;;;31.00;66.30;;;;;;5135864;27;20047;-76
2022/07/03 09:48:29;;;;;;;2.05;0.60;;;31.00;64.90;;;;;;5135855;27;20053;-76
2022/07/03 09:51:21;;;;;;;2.95;0.73;;;31.30;65.80;;;;;;5135976;27;20379;-76
2022/07/03 09:53:50;;;;;;;2.63;0.70;;;31.60;65.20;;;;;;5154357;27;20429;-77
2022/07/03 09:56:18;;;;;;;2.30;0.68;;;31.60;65.10;;;;;;5135106;27;20050;-76
2022/07/03 09:59:06;;;;;;;1.83;0.50;;;31.50;64.60;;;;;;5154042;27;20047;-75
2022/07/03 10:01:34;;;;;;;1.10;0.50;;;31.90;64.40;;;;;;5154174;27;20521;-76
2022/07/03 10:04:14;;;;;;;2.37;0.60;;;31.40;64.80;;;;;;5135384;27;20113;-76
2022/07/03 10:07:02;;;;;;;2.00;0.60;;;31.60;65.30;;;;;;5154015;27;20574;-75
2022/07/03 10:09:30;;;;;;;2.88;0.80;;;31.20;65.60;;;;;;5130517;27;20107;-76
2022/07/03 10:11:59;;;;;;;3.67;1.08;;;31.50;64.40;;;;;;5154303;27;20039;-76
2022/07/03 10:14:28;;;;;;;2.65;0.70;;;32.00;65.90;;;;;;5135894;27;20433;-77
2022/07/03 10:16:58;;;;;;;3.00;0.88;;;32.00;65.70;;;;;;5135604;27;20055;-77
2022/07/03 10:19:29;;;;;;;2.10;0.80;;;32.40;65.50;;;;;;5135494;27;20133;-76
2022/07/03 10:21:58;;;;;;;1.50;0.70;;;32.70;64.60;;;;;;5159635;27;20046;-76
2022/07/03 10:24:26;;;;;;;1.73;0.88;;;32.60;64.80;;;;;;5141911;27;20104;-75
2022/07/03 10:26:54;;;;;;;1.60;0.60;;;32.10;64.60;;;;;;5143863;27;20078;-75
2022/07/03 10:29:22;;;;;;;1.58;0.57;;;31.90;65.60;;;;;;5158054;27;20043;-76
2022/07/03 10:31:50;;;;;;;3.10;0.80;;;31.20;65.00;;;;;;5138702;27;20099;-76
2022/07/03 10:34:21;;;;;;;3.67;0.80;;;31.20;64.70;;;;;;5157911;27;20058;-76
2022/07/03 10:36:52;;;;;;;2.83;0.80;;;31.40;64.80;;;;;;5158103;27;20047;-77
2022/07/03 10:39:42;;;;;;;2.90;0.90;;;31.90;65.00;;;;;;5138723;27;20103;-76
2022/07/03 10:45:06;;;;;;;2.13;0.63;;;30.90;63.40;;;;;;5138464;27;19926;-76
2022/07/03 10:47:46;;;;;;;1.52;0.55;;;31.60;65.00;;;;;;5138989;27;20054;-76
2022/07/03 10:50:16;;;;;;;1.48;0.70;;;32.00;64.00;;;;;;5157445;27;20559;-77
2022/07/03 10:52:44;;;;;;;1.92;0.65;;;31.30;64.00;;;;;;5138642;27;20103;-76
2022/07/03 10:55:12;;;;;;;1.30;0.50;;;31.30;64.80;;;;;;5157212;27;20082;-75
2022/07/03 10:57:40;;;;;;;2.53;1.00;;;31.50;64.90;;;;;;5138942;27;20051;-76
2022/07/03 11:00:18;;;;;;;2.28;0.77;;;31.40;64.40;;;;;;5156413;27;20300;-76
2022/07/03 11:02:51;;;;;;;2.33;0.65;;;31.90;62.90;;;;;;5156624;27;20050;-76
2022/07/03 11:05:24;;;;;;;3.42;0.77;;;31.90;62.80;;;;;;5137882;27;20055;-76
2022/07/03 11:08:08;;;;;;;1.98;0.85;;;31.50;63.00;;;;;;5138757;27;20447;-75
2022/07/03 11:10:42;;;;;;;3.55;1.05;;;31.10;63.60;;;;;;5156566;27;20038;-75
2022/07/03 11:13:20;;;;;;;1.75;0.60;;;30.60;64.60;;;;;;5156166;27;20046;-76
2022/07/03 11:15:52;;;;;;;2.05;0.77;;;30.20;64.70;;;;;;5138043;27;20133;-76
2022/07/03 11:18:31;;;;;;;2.42;0.77;;;30.10;65.80;;;;;;5157008;27;20443;-76
2022/07/03 11:21:28;;;;;;;2.03;0.70;;;30.50;66.00;;;;;;5137778;27;20047;-75
2022/07/03 11:24:31;;;;;;;2.60;0.95;;;30.10;65.50;;;;;;5138347;27;20119;-75
2022/07/03 11:27:22;;;;;;;3.28;1.05;;;30.60;68.00;;;;;;5137883;27;20050;-75
2022/07/03 11:29:56;;;;;;;3.33;1.02;;;30.40;66.40;;;;;;5137878;27;20133;-76
2022/07/03 11:32:49;;;;;;;4.28;1.30;;;29.70;68.00;;;;;;5155538;27;20544;-76
2022/07/03 11:35:53;;;;;;;2.60;1.00;;;30.50;67.30;;;;;;5137321;27;20051;-77
2022/07/03 11:38:31;;;;;;;3.75;1.10;;;31.20;66.50;;;;;;5137490;27;20053;-77
2022/07/03 11:41:00;;;;;;;3.53;1.10;;;31.10;65.80;;;;;;5137177;27;20070;-78
2022/07/03 11:43:27;;;;;;;4.70;1.40;;;31.10;67.10;;;;;;5156244;27;20061;-76
2022/07/03 11:45:54;;;;;;;5.05;1.33;;;31.10;68.60;;;;;;5155976;27;20061;-77
2022/07/03 11:48:23;;;;;;;5.80;1.75;;;31.40;69.30;;;;;;5137552;27;20111;-77
2022/07/03 11:50:50;;;;;;;5.80;1.55;;;31.50;69.40;;;;;;5137425;27;20115;-76
2022/07/03 11:53:23;;;;;;;3.85;1.30;;;31.80;69.40;;;;;;5156335;27;20046;-77
2022/07/03 11:55:53;;;;;;;3.20;1.05;;;32.40;68.60;;;;;;5137016;27;20047;-77
2022/07/03 11:58:21;;;;;;;3.28;0.90;;;33.00;67.50;;;;;;5124758;27;20054;-77
2022/07/03 12:00:50;;;;;;;3.50;1.02;;;32.00;66.20;;;;;;5117108;27;20418;-77
2022/07/03 12:03:22;;;;;;;4.40;1.33;;;30.90;66.30;;;;;;5116520;27;20129;-77
2022/07/03 12:06:00;;;;;;;3.30;1.40;;;30.00;67.70;;;;;;5116722;27;20134;-77
2022/07/03 12:08:29;;;;;;;5.63;1.50;;;29.30;69.50;;;;;;5154821;27;20047;-77
2022/07/03 12:11:08;;;;;;;2.40;0.93;;;28.80;70.70;;;;;;5156225;27;20099;-77
2022/07/03 12:13:35;;;;;;;3.47;1.27;;;28.80;70.40;;;;;;5138729;27;20043;-77
2022/07/03 12:16:04;;;;;;;3.63;1.10;;;28.80;69.90;;;;;;5153926;27;20051;-77
2022/07/03 12:18:50;;;;;;;5.57;1.00;;;29.70;69.60;;;;;;5134461;27;20096;-78
2022/07/03 12:21:18;;;;;;;3.03;1.20;;;30.40;68.70;;;;;;5135046;27;20199;-77
2022/07/03 12:23:46;;;;;;;2.45;0.95;;;30.60;68.10;;;;;;5115895;27;20058;-77
2022/07/03 12:26:27;;;;;;;5.05;1.42;;;31.10;67.90;;;;;;5115905;27;20059;-77
2022/07/03 12:28:54;;;;;;;3.97;1.10;;;30.60;68.50;;;;;;5150314;27;20054;-78
2022/07/03 12:31:21;;;;;;;2.40;0.90;;;30.60;69.80;;;;;;5136306;27;20084;-77
2022/07/03 12:33:48;;;;;;;2.70;1.02;;;31.20;68.60;;;;;;5137035;27;20445;-78
2022/07/03 12:36:15;;;;;;;5.20;1.33;;;31.60;67.60;;;;;;5147547;27;20073;-77
2022/07/03 12:38:42;;;;;;;3.97;1.20;;;31.30;67.40;;;;;;5118023;27;20081;-76
2022/07/03 12:41:11;;;;;;;3.38;0.93;;;30.30;67.80;;;;;;5116143;27;20088;-76
2022/07/03 12:43:40;;;;;;;5.68;0.98;;;29.60;68.90;;;;;;5132023;27;20065;-77
2022/07/03 12:46:34;;;;;;;3.08;1.10;;;28.60;70.60;;;;;;5136111;27;20050;-77
2022/07/03 12:49:10;;;;;;;6.18;1.35;;;28.20;72.90;;;;;;5114267;27;20457;-78
2022/07/03 12:51:39;;;;;;;4.50;1.55;;;28.10;73.40;;;;;;5152341;27;20447;-77
2022/07/03 12:54:07;;;;;;;2.63;0.93;;;28.60;72.40;;;;;;5131324;27;20099;-77
2022/07/03 12:56:34;;;;;;;3.75;1.35;;;29.20;72.60;;;;;;5155006;27;20050;-78
2022/07/03 12:59:16;;;;;;;4.38;1.08;;;29.80;72.60;;;;;;5154611;27;20452;-77
2022/07/03 13:01:44;;;;;;;5.00;1.00;;;30.50;71.10;;;;;;5134203;27;20399;-77
2022/07/03 13:04:14;;;;;;;2.70;1.00;;;31.30;70.00;;;;;;5118202;27;20054;-78
2022/07/03 13:06:41;;;;;;;6.22;1.55;;;31.70;69.20;;;;;;5136088;27;20050;-78
2022/07/03 13:09:09;;;;;;;4.43;1.58;;;32.40;68.60;;;;;;5152191;27;20101;-77
2022/07/03 13:11:37;;;;;;;3.60;1.10;;;32.30;67.60;;;;;;5133857;27;20084;-77
2022/07/03 13:14:07;;;;;;;7.45;1.90;;;32.40;68.30;;;;;;5138033;27;20106;-78